createdAt,value
2019-02-14T00:02:28.676Z,106.20
2019-02-14T00:05:15.925Z,96.55
2019-02-14T00:07:47.438Z,100.60
2019-02-14T00:10:26.357Z,101.47
2019-02-14T00:13:05.102Z,99.75
2019-02-14T00:15:43.582Z,92.20
2019-02-14T00:18:23.330Z,104.53
2019-02-14T00:21:01.931Z,103.60
2019-02-14T00:23:40.953Z,98.97
2019-02-14T00:26:19.949Z,100.60
2019-02-14T00:28:58.719Z,105.92
2019-02-14T00:31:37.964Z,102.47
2019-02-14T00:34:16.595Z,97.20
2019-02-14T00:36:55.053Z,101.22
2019-02-14T00:39:33.813Z,88.82
2019-02-14T00:42:12.133Z,89.97
2019-02-14T00:44:50.797Z,87.88
2019-02-14T00:47:29.800Z,82.33
2019-02-14T00:50:08.415Z,79.27
2019-02-14T00:52:46.930Z,80.50
2019-02-14T00:55:26.055Z,69.95
2019-02-14T01:00:44.394Z,73.35
2019-02-14T01:03:23.023Z,78.57
2019-02-14T01:06:01.663Z,71.07
2019-02-14T01:08:40.424Z,71.22
2019-02-14T01:11:19.610Z,65.65
2019-02-14T01:13:59.173Z,70.80
2019-02-14T01:16:37.806Z,69.55
2019-02-14T01:19:17.418Z,65.37
2019-02-14T01:21:57.217Z,58.10
2019-02-14T01:24:35.810Z,62.40
2019-02-14T01:27:14.931Z,57.80
2019-02-14T01:29:53.698Z,60.35
2019-02-14T01:32:32.449Z,58.40
2019-02-14T01:35:11.784Z,58.52
2019-02-14T01:37:50.465Z,61.75
2019-02-14T01:40:29.720Z,59.08
2019-02-14T01:43:08.304Z,57.00
2019-02-14T01:45:47.857Z,58.87
2019-02-14T01:48:26.713Z,51.00
2019-02-14T01:51:05.305Z,49.93
2019-02-14T01:53:44.184Z,47.55
2019-02-14T01:56:22.809Z,46.02
2019-02-14T01:59:02.132Z,51.75
2019-02-14T02:01:41.032Z,46.10
2019-02-14T02:04:19.718Z,43.68
2019-02-14T02:06:58.682Z,45.05
2019-02-14T02:09:37.600Z,39.38
2019-02-14T02:12:16.458Z,38.98
2019-02-14T02:14:55.424Z,43.52
2019-02-14T02:17:33.992Z,44.93
2019-02-14T02:20:14.369Z,47.75
2019-02-14T02:22:53.094Z,44.30
2019-02-14T02:25:32.197Z,42.15
2019-02-14T02:28:10.832Z,43.70
2019-02-14T02:30:49.533Z,43.95
2019-02-14T02:33:29.115Z,42.38
2019-02-14T02:36:07.757Z,42.88
2019-02-14T02:38:46.453Z,39.75
2019-02-14T02:41:25.562Z,43.50
2019-02-14T02:44:04.278Z,42.78
2019-02-14T02:46:43.174Z,43.92
2019-02-14T02:49:22.220Z,45.67
2019-02-14T02:52:00.810Z,36.40
2019-02-14T02:54:39.701Z,42.50
2019-02-14T02:57:18.742Z,44.13
2019-02-14T02:59:59.176Z,39.58
2019-02-14T03:02:37.779Z,40.43
2019-02-14T03:05:17.903Z,39.75
2019-02-14T03:07:56.688Z,39.63
2019-02-14T03:10:35.630Z,41.88
2019-02-14T03:13:14.298Z,42.23
2019-02-14T03:15:52.932Z,42.62
2019-02-14T03:18:31.594Z,36.25
2019-02-14T03:21:10.542Z,38.83
2019-02-14T03:23:49.229Z,35.10
2019-02-14T03:26:28.538Z,35.95
2019-02-14T03:29:07.551Z,29.35
2019-02-14T03:31:46.547Z,30.92
2019-02-14T03:34:25.467Z,36.77
2019-02-14T03:37:04.228Z,31.37
2019-02-14T03:39:43.031Z,29.35
2019-02-14T03:42:21.544Z,22.00
2019-02-14T03:45:01.225Z,25.55
2019-02-14T03:47:39.994Z,32.48
2019-02-14T03:50:19.336Z,23.98
2019-02-14T03:52:57.993Z,31.60
2019-02-14T03:55:36.554Z,41.55
2019-02-14T03:58:15.743Z,28.50
2019-02-14T04:00:54.902Z,25.32
2019-02-14T04:03:34.090Z,28.73
2019-02-14T04:06:12.853Z,24.43
2019-02-14T04:08:51.392Z,22.85
2019-02-14T04:11:30.560Z,24.75
2019-02-14T04:14:10.323Z,26.45
2019-02-14T04:16:49.041Z,22.80
2019-02-14T04:19:28.013Z,25.02
2019-02-14T04:22:07.218Z,24.95
2019-02-14T04:24:46.116Z,28.00
2019-02-14T04:27:24.780Z,24.90
2019-02-14T04:30:03.661Z,21.05
2019-02-14T04:32:42.939Z,31.90
2019-02-14T04:35:21.854Z,28.05
2019-02-14T04:38:01.029Z,22.48
2019-02-14T04:40:39.958Z,24.87
2019-02-14T04:43:18.552Z,25.72
2019-02-14T04:45:57.275Z,28.47
2019-02-14T04:48:36.410Z,28.83
2019-02-14T04:51:14.961Z,35.98
2019-02-14T04:53:53.397Z,31.57
2019-02-14T04:56:32.018Z,27.40
2019-02-14T04:59:10.845Z,29.27
2019-02-14T05:01:49.629Z,23.38
2019-02-14T05:04:28.525Z,28.32
2019-02-14T05:07:07.257Z,26.23
2019-02-14T05:09:45.820Z,28.57
2019-02-14T05:12:26.161Z,22.32
2019-02-14T05:15:04.208Z,24.52
2019-02-14T05:17:44.135Z,28.70
2019-02-14T05:20:23.062Z,22.62
2019-02-14T05:23:02.215Z,21.55
2019-02-14T05:25:40.839Z,23.55
2019-02-14T05:28:19.607Z,26.27
2019-02-14T05:30:58.137Z,22.07
2019-02-14T05:33:37.303Z,27.22
2019-02-14T05:36:15.867Z,22.85
2019-02-14T05:38:55.003Z,24.52
2019-02-14T05:41:33.605Z,25.00
2019-02-14T05:44:12.439Z,26.68
2019-02-14T05:46:50.764Z,23.67
2019-02-14T05:49:29.683Z,26.15
2019-02-14T05:52:08.248Z,25.50
2019-02-14T05:54:46.795Z,20.57
2019-02-14T05:57:27.432Z,28.62
2019-02-14T06:00:06.009Z,28.07
2019-02-14T06:02:46.178Z,24.27
2019-02-14T06:05:25.310Z,26.25
2019-02-14T06:08:04.121Z,25.92
2019-02-14T06:10:42.843Z,24.80
2019-02-14T06:13:21.782Z,26.02
2019-02-14T06:16:00.599Z,23.45
2019-02-14T06:18:39.412Z,27.25
2019-02-14T06:21:17.959Z,29.45
2019-02-14T06:23:57.243Z,32.40
2019-02-14T06:26:37.039Z,26.15
2019-02-14T06:29:15.772Z,31.85
2019-02-14T06:31:54.969Z,28.23
2019-02-14T06:34:33.684Z,24.37
2019-02-14T06:37:12.328Z,25.08
2019-02-14T06:39:51.416Z,24.32
2019-02-14T06:42:30.115Z,29.55
2019-02-14T06:45:09.159Z,27.40
2019-02-14T06:47:47.746Z,23.42
2019-02-14T06:50:34.453Z,25.17
2019-02-14T06:53:06.871Z,22.75
2019-02-14T06:55:45.551Z,37.63
2019-02-14T06:58:24.220Z,34.65
2019-02-14T07:01:04.406Z,25.68
2019-02-14T07:03:43.389Z,34.35
2019-02-14T07:06:23.138Z,37.40
2019-02-14T07:09:02.185Z,32.45
2019-02-14T07:11:41.142Z,29.98
2019-02-14T07:14:19.967Z,30.40
2019-02-14T07:16:58.659Z,26.30
2019-02-14T07:19:37.717Z,29.37
2019-02-14T07:22:16.369Z,25.27
2019-02-14T07:24:55.506Z,30.57
2019-02-14T07:27:34.199Z,25.88
2019-02-14T07:30:15.348Z,30.68
2019-02-14T07:32:53.805Z,30.45
2019-02-14T07:35:33.179Z,23.90
2019-02-14T07:38:12.724Z,27.73
2019-02-14T07:40:51.987Z,25.10
2019-02-14T07:43:30.778Z,27.10
2019-02-14T07:46:09.650Z,31.80
2019-02-14T07:48:47.921Z,27.95
2019-02-14T07:51:26.709Z,30.80
2019-02-14T07:54:05.131Z,31.00
2019-02-14T07:56:43.907Z,25.72
2019-02-14T07:59:22.982Z,32.55
2019-02-14T08:04:56.633Z,29.50
2019-02-14T08:07:36.160Z,27.58
2019-02-14T08:10:16.639Z,26.05
2019-02-14T08:12:56.216Z,29.82
2019-02-14T08:15:34.869Z,31.07
2019-02-14T08:18:13.728Z,30.57
2019-02-14T08:20:52.926Z,25.40
2019-02-14T08:23:31.817Z,26.10
2019-02-14T08:26:11.074Z,26.45
2019-02-14T08:28:49.935Z,27.77
2019-02-14T08:31:29.568Z,24.70
2019-02-14T08:34:08.464Z,35.05
2019-02-14T08:36:47.401Z,28.38
2019-02-14T08:39:27.342Z,23.83
2019-02-14T08:42:05.975Z,26.85
2019-02-14T08:44:44.563Z,51.95
2019-02-14T08:47:23.373Z,29.75
2019-02-14T08:50:02.641Z,34.80
2019-02-14T08:52:41.437Z,52.35
2019-02-14T08:55:20.608Z,30.62
2019-02-14T08:57:59.260Z,136.12
2019-02-14T09:00:38.160Z,39.53
2019-02-14T09:03:17.815Z,28.10
2019-02-14T09:05:56.475Z,29.45
2019-02-14T09:08:35.493Z,30.17
2019-02-14T09:11:14.993Z,43.65
2019-02-14T09:13:53.572Z,32.45
2019-02-14T09:16:32.858Z,36.73
2019-02-14T09:19:11.530Z,32.15
2019-02-14T09:21:50.487Z,29.45
2019-02-14T09:24:29.464Z,27.35
2019-02-14T09:27:08.383Z,27.65
2019-02-14T09:29:47.364Z,31.25
2019-02-14T09:32:28.750Z,27.90
2019-02-14T09:35:07.874Z,28.65
2019-02-14T09:37:46.597Z,28.15
2019-02-14T09:40:25.983Z,35.38
2019-02-14T09:43:05.175Z,29.20
2019-02-14T09:45:43.962Z,29.12
2019-02-14T09:48:22.961Z,39.58
2019-02-14T09:51:02.088Z,27.30
2019-02-14T09:53:40.755Z,31.57
2019-02-14T09:56:19.588Z,39.70
2019-02-14T09:58:58.244Z,35.73
2019-02-14T10:01:37.122Z,36.35
2019-02-14T10:04:15.674Z,28.62
2019-02-14T10:06:54.528Z,27.65
2019-02-14T10:09:33.091Z,30.05
2019-02-14T10:12:12.070Z,32.23
2019-02-14T10:14:50.404Z,27.80
2019-02-14T10:17:29.555Z,31.05
2019-02-14T10:20:08.511Z,29.40
2019-02-14T10:22:47.544Z,33.53
2019-02-14T10:25:26.293Z,40.65
2019-02-14T10:28:05.269Z,36.80
2019-02-14T10:30:43.908Z,34.98
2019-02-14T10:33:22.756Z,28.30
2019-02-14T10:36:01.553Z,30.92
2019-02-14T10:38:40.378Z,40.00
2019-02-14T10:41:20.720Z,39.42
2019-02-14T10:43:59.671Z,34.70
2019-02-14T10:46:38.184Z,41.55
2019-02-14T10:49:17.372Z,49.27
2019-02-14T10:51:56.268Z,39.95
2019-02-14T10:54:35.239Z,43.10
2019-02-14T10:57:14.585Z,40.88
2019-02-14T10:59:54.258Z,55.80
2019-02-14T11:02:33.278Z,64.47
2019-02-14T11:05:12.143Z,42.58
2019-02-14T11:07:51.242Z,65.03
2019-02-14T11:10:30.247Z,72.80
2019-02-14T11:13:09.224Z,55.60
2019-02-14T11:15:47.970Z,53.40
2019-02-14T11:18:26.978Z,43.30
2019-02-14T11:21:05.472Z,49.75
2019-02-14T11:23:44.379Z,52.90
2019-02-14T11:26:23.128Z,45.48
2019-02-14T11:29:01.988Z,46.30
2019-02-14T11:31:40.647Z,53.63
2019-02-14T11:34:19.884Z,43.73
2019-02-14T11:36:57.958Z,56.20
2019-02-14T11:39:37.185Z,50.23
2019-02-14T11:42:15.783Z,43.15
2019-02-14T11:44:54.621Z,46.55
2019-02-14T11:47:32.984Z,46.90
2019-02-14T11:50:12.366Z,45.20
2019-02-14T11:52:51.084Z,46.50
2019-02-14T11:55:30.185Z,45.92
2019-02-14T11:58:08.853Z,43.15
2019-02-14T12:00:47.556Z,49.00
2019-02-14T12:03:26.204Z,51.25
2019-02-14T12:06:27.717Z,52.20
2019-02-14T12:09:08.058Z,45.63
2019-02-14T12:11:46.988Z,51.20
2019-02-14T12:14:25.827Z,48.35
2019-02-14T12:17:04.424Z,43.70
2019-02-14T12:19:43.266Z,49.77
2019-02-14T12:22:21.970Z,51.60
2019-02-14T12:25:03.658Z,52.20
2019-02-14T12:27:42.234Z,52.35
2019-02-14T12:30:21.600Z,49.27
2019-02-14T12:33:00.119Z,51.98
2019-02-14T12:35:39.221Z,47.35
2019-02-14T12:38:17.731Z,58.25
2019-02-14T12:40:56.641Z,60.40
2019-02-14T12:43:35.055Z,50.63
2019-02-14T12:46:13.779Z,55.08
2019-02-14T12:48:52.301Z,59.53
2019-02-14T12:51:31.170Z,57.38
2019-02-14T12:54:09.561Z,62.93
2019-02-14T12:56:48.901Z,66.00
2019-02-14T12:59:27.704Z,62.30
2019-02-14T13:02:06.633Z,57.50
2019-02-14T13:04:45.626Z,56.90
2019-02-14T13:07:24.325Z,61.00
2019-02-14T13:10:03.325Z,53.65
2019-02-14T13:12:42.099Z,59.88
2019-02-14T13:15:22.951Z,55.12
2019-02-14T13:18:01.893Z,58.60
2019-02-14T13:20:40.943Z,65.40
2019-02-14T13:23:19.704Z,57.43
2019-02-14T13:25:58.782Z,59.48
2019-02-14T13:28:37.477Z,53.80
2019-02-14T13:31:16.308Z,53.20
2019-02-14T13:33:54.457Z,61.63
2019-02-14T13:36:33.591Z,56.88
2019-02-14T13:39:12.913Z,58.68
2019-02-14T13:41:51.992Z,57.73
2019-02-14T13:44:30.751Z,64.90
2019-02-14T13:47:09.240Z,65.65
2019-02-14T13:49:48.074Z,56.45
2019-02-14T13:52:26.681Z,59.27
2019-02-14T13:55:05.195Z,60.95
2019-02-14T13:57:44.130Z,57.90
2019-02-14T14:00:25.422Z,57.53
2019-02-14T14:03:04.221Z,62.88
2019-02-14T14:05:43.009Z,54.63
2019-02-14T14:08:21.961Z,65.42
2019-02-14T14:11:00.722Z,62.20
2019-02-14T14:13:39.356Z,62.93
2019-02-14T14:16:17.916Z,58.60
2019-02-14T14:18:56.837Z,61.25
2019-02-14T14:21:35.537Z,60.73
2019-02-14T14:24:13.989Z,61.33
2019-02-14T14:26:53.502Z,59.98
2019-02-14T14:29:32.293Z,65.50
2019-02-14T14:32:10.948Z,57.45
2019-02-14T14:34:49.617Z,61.73
2019-02-14T14:37:28.370Z,66.65
2019-02-14T14:40:06.915Z,65.85
2019-02-14T14:43:07.281Z,71.12
2019-02-14T14:46:03.947Z,63.75
2019-02-14T14:48:45.111Z,65.30
2019-02-14T14:51:23.527Z,65.22
2019-02-14T14:54:02.454Z,70.55
2019-02-14T14:56:40.962Z,68.35
2019-02-14T14:59:19.823Z,74.42
2019-02-14T15:01:58.475Z,74.27
2019-02-14T15:04:37.261Z,73.42
2019-02-14T15:07:16.397Z,70.08
2019-02-14T15:09:57.539Z,72.62
2019-02-14T15:12:35.488Z,70.25
2019-02-14T15:15:14.745Z,74.03
2019-02-14T15:17:53.525Z,74.77
2019-02-14T15:20:32.647Z,69.70
2019-02-14T15:23:11.303Z,78.57
2019-02-14T15:25:50.481Z,75.42
2019-02-14T15:28:29.809Z,75.55
2019-02-14T15:31:09.068Z,71.97
2019-02-14T15:33:47.968Z,70.70
2019-02-14T15:36:28.277Z,69.85
2019-02-14T15:39:08.328Z,69.65
2019-02-14T15:41:47.423Z,77.45
2019-02-14T15:44:26.469Z,79.45
2019-02-14T15:47:05.586Z,86.22
2019-02-14T15:49:44.774Z,89.10
2019-02-14T15:52:23.896Z,84.52
2019-02-14T15:55:02.514Z,90.83
2019-02-14T15:57:42.891Z,74.60
2019-02-14T16:00:21.531Z,81.42
2019-02-14T16:03:00.616Z,80.10
2019-02-14T16:05:40.331Z,74.30
2019-02-14T16:08:21.804Z,87.40
2019-02-14T16:10:59.262Z,83.67
2019-02-14T16:13:38.533Z,82.57
2019-02-14T16:16:17.426Z,92.17
2019-02-14T16:18:56.973Z,80.32
2019-02-14T16:21:36.555Z,84.05
2019-02-14T16:24:18.546Z,85.83
2019-02-14T16:26:59.249Z,101.10
2019-02-14T16:29:40.048Z,99.77
2019-02-14T16:32:19.014Z,91.75
2019-02-14T16:34:58.831Z,88.92
2019-02-14T16:37:37.692Z,94.95
2019-02-14T16:40:17.176Z,92.47
2019-02-14T16:42:58.647Z,95.25
2019-02-14T16:45:37.586Z,99.58
2019-02-14T16:48:16.618Z,112.15
2019-02-14T16:50:55.685Z,107.87
2019-02-14T16:53:34.786Z,100.53
2019-02-14T16:56:14.218Z,90.55
2019-02-14T17:01:49.031Z,84.37
2019-02-14T17:04:28.914Z,97.05
2019-02-14T17:07:07.937Z,93.05
2019-02-14T17:09:47.578Z,86.42
2019-02-14T17:12:26.333Z,86.47
2019-02-14T17:15:05.480Z,182.60
2019-02-14T17:17:45.118Z,166.10
2019-02-14T17:20:23.743Z,194.30
2019-02-14T17:23:02.531Z,189.43
2019-02-14T17:25:41.646Z,141.55
2019-02-14T17:28:20.420Z,140.40
2019-02-14T17:31:02.597Z,107.97
2019-02-14T17:33:41.509Z,108.72
2019-02-14T17:36:20.321Z,110.30
2019-02-14T17:38:59.482Z,139.90
2019-02-14T17:41:38.225Z,109.12
2019-02-14T17:44:16.895Z,116.33
2019-02-14T17:46:55.456Z,101.70
2019-02-14T17:49:34.120Z,105.37
2019-02-14T17:52:13.012Z,100.72
2019-02-14T17:54:51.754Z,113.00
2019-02-14T17:57:30.840Z,106.78
2019-02-14T18:00:10.501Z,109.63
2019-02-14T18:02:49.363Z,100.75
2019-02-14T18:05:28.203Z,104.65
2019-02-14T18:08:07.091Z,111.42
2019-02-14T18:10:54.555Z,111.10
2019-02-14T18:13:25.973Z,111.47
2019-02-14T18:16:04.937Z,104.07
2019-02-14T18:18:44.204Z,104.03
2019-02-14T18:21:23.022Z,105.37
2019-02-14T18:24:02.010Z,110.57
2019-02-14T18:26:40.428Z,113.17
2019-02-14T18:29:19.211Z,101.70
2019-02-14T18:31:58.677Z,106.27
2019-02-14T18:34:37.088Z,99.28
2019-02-14T18:37:15.974Z,141.88
2019-02-14T18:39:54.551Z,112.40
2019-02-14T18:42:33.691Z,211.05
2019-02-14T18:45:14.046Z,454.68
2019-02-14T18:47:53.265Z,385.35
2019-02-14T18:50:32.036Z,227.90
2019-02-14T18:53:11.045Z,166.43
2019-02-14T18:55:49.637Z,118.30
2019-02-14T18:58:28.643Z,124.85
2019-02-14T19:01:07.364Z,99.62
2019-02-14T19:03:45.927Z,101.80
2019-02-14T19:06:24.881Z,96.30
2019-02-14T19:09:03.784Z,98.20
2019-02-14T19:11:45.774Z,106.17
2019-02-14T19:14:25.847Z,123.55
2019-02-14T19:17:05.332Z,115.82
2019-02-14T19:19:44.221Z,119.50
2019-02-14T19:22:24.531Z,108.12
2019-02-14T19:25:03.216Z,107.10
2019-02-14T19:27:42.071Z,103.92
2019-02-14T19:30:21.102Z,102.12
2019-02-14T19:33:01.620Z,109.10
2019-02-14T19:35:40.500Z,108.95
2019-02-14T19:38:19.660Z,105.05
2019-02-14T19:40:58.179Z,95.25
2019-02-14T19:43:38.190Z,97.02
2019-02-14T19:46:17.186Z,100.97
2019-02-14T19:48:55.737Z,99.55
2019-02-14T19:51:34.404Z,93.65
2019-02-14T19:54:12.982Z,102.00
2019-02-14T19:56:51.769Z,105.27
2019-02-14T19:59:30.550Z,98.45
2019-02-14T20:02:09.262Z,105.15
2019-02-14T20:04:48.355Z,101.78
2019-02-14T20:07:27.181Z,102.47
2019-02-14T20:10:05.881Z,103.40
2019-02-14T20:12:44.501Z,104.03
2019-02-14T20:15:24.209Z,101.65
2019-02-14T20:18:02.967Z,102.00
2019-02-14T20:20:42.044Z,99.62
2019-02-14T20:23:20.609Z,112.37
2019-02-14T20:25:59.876Z,120.37
2019-02-14T20:28:38.754Z,111.85
2019-02-14T20:31:18.248Z,113.57
2019-02-14T20:33:57.772Z,112.12
2019-02-14T20:36:36.715Z,111.40
2019-02-14T20:39:15.545Z,109.52
2019-02-14T20:41:54.351Z,103.15
2019-02-14T20:44:33.103Z,105.20
2019-02-14T20:47:12.282Z,113.83
2019-02-14T20:49:51.230Z,145.62
2019-02-14T20:52:30.354Z,133.10
2019-02-14T20:55:08.943Z,133.67
2019-02-14T20:57:47.827Z,128.85
2019-02-14T21:00:34.453Z,138.75
2019-02-14T21:03:13.293Z,124.30
2019-02-14T21:05:52.264Z,120.17
2019-02-14T21:08:31.186Z,131.67
2019-02-14T21:11:10.171Z,128.85
2019-02-14T21:13:48.248Z,130.90
2019-02-14T21:16:27.287Z,122.00
2019-02-14T21:19:06.142Z,127.32
2019-02-14T21:21:44.986Z,131.97
2019-02-14T21:24:24.122Z,125.27
2019-02-14T21:27:02.833Z,121.40
2019-02-14T21:29:41.681Z,121.90
2019-02-14T21:32:20.397Z,121.90
2019-02-14T21:34:59.557Z,118.50
2019-02-14T21:37:38.891Z,111.60
2019-02-14T21:40:18.416Z,110.97
2019-02-14T21:42:58.060Z,115.05
2019-02-14T21:45:37.007Z,109.67
2019-02-14T21:48:15.731Z,114.47
2019-02-14T21:50:54.718Z,109.05
2019-02-14T21:53:33.970Z,99.40
2019-02-14T21:56:12.673Z,101.67
2019-02-14T21:58:51.617Z,106.27
2019-02-14T22:01:30.861Z,100.45
2019-02-14T22:04:09.413Z,99.17
2019-02-14T22:06:49.619Z,102.67
2019-02-14T22:09:28.510Z,99.92
2019-02-14T22:12:07.213Z,99.97
2019-02-14T22:14:46.622Z,110.40
2019-02-14T22:17:25.176Z,117.85
2019-02-14T22:20:04.081Z,125.07
2019-02-14T22:22:42.842Z,111.85
2019-02-14T22:25:21.327Z,113.62
2019-02-14T22:27:59.814Z,114.17
2019-02-14T22:30:39.567Z,113.42
2019-02-14T22:33:18.060Z,112.47
2019-02-14T22:35:58.083Z,115.22
2019-02-14T22:38:36.903Z,120.22
2019-02-14T22:41:15.998Z,117.45
2019-02-14T22:43:54.643Z,114.47
2019-02-14T22:46:33.576Z,119.15
2019-02-14T22:49:12.202Z,118.55
2019-02-14T22:51:51.329Z,117.03
2019-02-14T22:54:29.907Z,111.80
2019-02-14T22:57:08.884Z,112.55
2019-02-14T22:59:47.784Z,125.97
2019-02-14T23:02:26.902Z,126.90
2019-02-14T23:05:05.538Z,122.90
2019-02-14T23:07:44.103Z,129.63
2019-02-14T23:10:22.826Z,131.40
2019-02-14T23:13:02.118Z,142.50
2019-02-14T23:15:41.027Z,135.68
